createdAt,value
2023-06-17T00:06:28.091Z,19.40
2023-06-17T00:11:31.721Z,19.40
2023-06-17T00:16:34.088Z,19.40
2023-06-17T00:21:36.713Z,19.40
2023-06-17T00:26:39.065Z,19.40
2023-06-17T00:31:41.202Z,19.30
2023-06-17T00:36:43.526Z,19.20
2023-06-17T00:41:45.946Z,19.10
2023-06-17T00:46:53.842Z,19.00
2023-06-17T00:57:20.093Z,18.90
2023-06-17T01:07:41.528Z,18.70
2023-06-17T01:12:45.340Z,18.60
2023-06-17T01:17:53.643Z,18.60
2023-06-17T01:22:56.612Z,18.50
2023-06-17T01:28:01.942Z,18.40
2023-06-17T01:33:04.456Z,18.30
2023-06-17T01:38:29.245Z,18.20
2023-06-17T01:43:35.640Z,18.10
2023-06-17T01:48:38.229Z,18.00
2023-06-17T01:53:40.542Z,17.70
2023-06-17T01:58:43.162Z,17.80
2023-06-17T02:03:47.239Z,17.70
2023-06-17T02:08:53.801Z,17.70
2023-06-17T02:13:56.736Z,17.60
2023-06-17T02:24:01.712Z,17.40
2023-06-17T02:29:04.580Z,17.30
2023-06-17T02:34:06.763Z,17.30
2023-06-17T02:44:11.708Z,17.20
2023-06-17T02:49:14.559Z,17.20
2023-06-17T02:54:17.175Z,17.10
2023-06-17T02:59:19.506Z,17.10
2023-06-17T03:04:24.732Z,17.00
2023-06-17T03:09:27.367Z,17.00
2023-06-17T03:14:30.998Z,16.90
2023-06-17T03:19:34.202Z,16.90
2023-06-17T03:24:37.040Z,16.80
2023-06-17T03:29:39.498Z,16.80
2023-06-17T03:34:44.007Z,16.70
2023-06-17T03:49:54.604Z,16.50
2023-06-17T03:54:57.136Z,16.40
2023-06-17T04:00:01.091Z,16.40
2023-06-17T04:05:06.304Z,16.40
2023-06-17T04:10:12.208Z,16.30
2023-06-17T04:15:14.578Z,16.30
2023-06-17T04:20:17.885Z,16.30
2023-06-17T04:25:21.892Z,16.40
2023-06-17T04:30:26.296Z,16.40
2023-06-17T04:35:30.670Z,16.50
2023-06-17T04:45:37.057Z,16.60
2023-06-17T04:50:41.679Z,16.60
2023-06-17T04:55:44.251Z,16.70
2023-06-17T05:00:47.168Z,16.80
2023-06-17T05:20:59.104Z,17.30
2023-06-17T05:26:02.733Z,17.50
2023-06-17T05:31:05.737Z,17.70
2023-06-17T05:36:08.166Z,18.00
2023-06-17T05:46:13.184Z,18.50
2023-06-17T05:51:17.829Z,18.70
2023-06-17T05:56:21.732Z,19.00
2023-06-17T06:01:23.878Z,19.30
2023-06-17T06:06:27.087Z,19.60
2023-06-17T06:11:29.560Z,19.90
2023-06-17T06:16:32.417Z,20.10
2023-06-17T06:21:34.697Z,20.50
2023-06-17T06:26:37.197Z,20.80
2023-06-17T06:31:43.990Z,21.10
2023-06-17T06:36:46.618Z,21.50
2023-06-17T06:41:49.660Z,21.90
2023-06-17T06:46:55.083Z,22.20
2023-06-17T06:51:57.347Z,22.60
2023-06-17T06:56:59.918Z,22.90
2023-06-17T07:02:02.463Z,23.30
2023-06-17T07:07:06.008Z,23.60
2023-06-17T07:12:09.497Z,23.70
2023-06-17T07:17:12.720Z,24.10
2023-06-17T07:27:18.194Z,24.70
2023-06-17T07:32:20.491Z,25.00
2023-06-17T07:37:22.676Z,25.30
2023-06-17T07:42:25.777Z,25.40
2023-06-17T07:47:28.209Z,25.70
2023-06-17T07:52:31.584Z,25.80
2023-06-17T07:57:33.790Z,25.80
2023-06-17T08:02:36.007Z,26.30
2023-06-17T08:07:38.411Z,26.50
2023-06-17T08:12:40.745Z,26.70
2023-06-17T08:17:43.315Z,26.70
2023-06-17T08:22:45.627Z,27.10
2023-06-17T08:27:51.678Z,27.30
2023-06-17T08:32:54.080Z,27.50
2023-06-17T08:37:56.116Z,27.80
2023-06-17T08:43:06.118Z,27.90
2023-06-17T08:48:08.430Z,28.10
2023-06-17T08:53:11.166Z,28.10
2023-06-17T08:58:13.591Z,28.50
2023-06-17T09:03:17.218Z,28.50
2023-06-17T09:08:19.841Z,28.80
2023-06-17T09:13:21.939Z,29.10
2023-06-17T09:18:24.057Z,29.20
2023-06-17T09:23:26.200Z,29.50
2023-06-17T09:28:28.266Z,29.60
2023-06-17T09:33:30.621Z,29.70
2023-06-17T09:38:33.118Z,29.80
2023-06-17T09:53:45.896Z,30.10
2023-06-17T09:58:48.775Z,30.20
2023-06-17T10:03:51.366Z,30.60
2023-06-17T10:08:54.264Z,30.80
2023-06-17T10:14:28.680Z,30.80
2023-06-17T10:19:34.651Z,31.10
2023-06-17T10:24:37.640Z,31.40
2023-06-17T10:29:44.561Z,31.50
2023-06-17T10:35:13.037Z,31.60
2023-06-17T10:40:21.964Z,31.60
2023-06-17T10:45:25.007Z,31.80
2023-06-17T10:50:27.541Z,31.90
2023-06-17T10:55:29.654Z,32.00
2023-06-17T11:00:31.947Z,32.30
2023-06-17T11:05:37.733Z,32.80
2023-06-17T11:10:39.943Z,32.80
2023-06-17T11:15:42.044Z,33.10
2023-06-17T11:20:44.174Z,33.30
2023-06-17T11:25:47.225Z,33.40
2023-06-17T11:30:50.699Z,33.60
2023-06-17T11:35:55.896Z,33.90
2023-06-17T11:40:59.139Z,34.40
2023-06-17T11:46:03.084Z,34.40
2023-06-17T11:51:05.407Z,34.70
2023-06-17T11:56:09.442Z,35.10
2023-06-17T12:01:14.597Z,35.40
2023-06-17T12:06:21.557Z,36.00
2023-06-17T12:16:36.420Z,36.60
2023-06-17T12:21:39.629Z,36.60
2023-06-17T12:26:41.799Z,37.00
2023-06-17T12:31:44.385Z,36.90
2023-06-17T12:36:46.531Z,36.70
2023-06-17T12:41:48.675Z,36.80
2023-06-17T12:46:51.881Z,36.90
2023-06-17T12:51:54.124Z,37.10
2023-06-17T12:56:56.662Z,37.50
2023-06-17T13:01:58.886Z,37.50
2023-06-17T13:07:01.210Z,37.30
2023-06-17T13:12:03.707Z,37.20
2023-06-17T13:17:06.359Z,37.20
2023-06-17T13:22:09.103Z,37.10
2023-06-17T13:27:15.262Z,36.90
2023-06-17T13:32:19.688Z,36.90
2023-06-17T13:42:24.900Z,36.90
2023-06-17T13:47:27.164Z,36.80
2023-06-17T13:52:29.433Z,37.10
2023-06-17T13:57:31.632Z,37.10
2023-06-17T14:02:33.823Z,34.60
2023-06-17T14:07:36.236Z,38.10
2023-06-17T14:12:38.720Z,38.70
2023-06-17T14:17:40.954Z,39.20
2023-06-17T14:22:43.130Z,39.60
2023-06-17T14:27:45.284Z,39.80
2023-06-17T14:32:49.232Z,39.90
2023-06-17T14:37:51.417Z,40.60
2023-06-17T14:42:53.936Z,41.00
2023-06-17T14:47:56.161Z,41.60
2023-06-17T14:52:58.437Z,42.10
2023-06-17T14:58:00.602Z,43.10
2023-06-17T15:03:03.146Z,43.60
2023-06-17T15:08:05.665Z,44.10
2023-06-17T15:13:09.148Z,44.30
2023-06-17T15:18:15.401Z,44.70
2023-06-17T15:23:17.554Z,44.80
2023-06-17T15:28:19.647Z,44.90
2023-06-17T15:33:21.752Z,44.60
2023-06-17T15:38:23.985Z,44.10
2023-06-17T15:43:26.314Z,44.20
2023-06-17T15:48:30.230Z,44.30
2023-06-17T15:53:32.399Z,44.40
2023-06-17T15:58:34.644Z,44.40
2023-06-17T16:03:36.877Z,44.20
2023-06-17T16:08:39.513Z,43.90
2023-06-17T16:13:41.603Z,43.80
2023-06-17T16:18:43.755Z,43.60
2023-06-17T16:23:45.904Z,43.40
2023-06-17T16:28:48.045Z,43.20
2023-06-17T16:33:50.450Z,42.80
2023-06-17T16:38:52.626Z,42.20
2023-06-17T16:43:54.795Z,41.70
2023-06-17T16:48:56.906Z,40.80
2023-06-17T16:54:02.323Z,40.20
2023-06-17T16:59:06.452Z,39.60
2023-06-17T17:04:13.244Z,39.20
2023-06-17T17:09:16.137Z,38.90
2023-06-17T17:14:18.364Z,38.90
2023-06-17T17:19:20.810Z,38.80
2023-06-17T17:24:22.993Z,38.50
2023-06-17T17:29:25.416Z,38.20
2023-06-17T17:34:27.533Z,37.60
2023-06-17T17:39:29.669Z,37.00
2023-06-17T17:44:31.867Z,36.50
2023-06-17T17:49:37.506Z,36.10
2023-06-17T17:54:46.567Z,35.40
2023-06-17T17:59:59.649Z,35.10
2023-06-17T18:05:04.481Z,34.70
2023-06-17T18:10:07.351Z,34.20
2023-06-17T18:15:11.158Z,34.00
2023-06-17T18:25:15.979Z,33.10
2023-06-17T18:30:18.182Z,32.70
2023-06-17T18:35:20.439Z,32.40
2023-06-17T18:40:23.177Z,31.80
2023-06-17T18:55:31.516Z,30.80
2023-06-17T19:00:35.305Z,30.40
2023-06-17T19:05:39.618Z,27.60
2023-06-17T19:10:41.799Z,29.80
2023-06-17T19:15:43.980Z,29.40
2023-06-17T19:20:46.253Z,29.00
2023-06-17T19:25:48.377Z,28.80
2023-06-17T19:30:50.731Z,28.40
2023-06-17T19:35:52.870Z,28.10
2023-06-17T19:40:55.040Z,27.70
2023-06-17T19:45:59.094Z,27.30
2023-06-17T19:51:01.925Z,26.90
2023-06-17T19:56:04.340Z,26.60
2023-06-17T20:06:10.025Z,25.80
2023-06-17T20:11:12.297Z,25.50
2023-06-17T20:21:17.490Z,25.10
2023-06-17T20:26:19.721Z,24.90
2023-06-17T20:36:27.517Z,24.40
2023-06-17T20:46:32.459Z,24.00
2023-06-17T20:51:34.717Z,23.80
2023-06-17T20:56:42.555Z,23.50
2023-06-17T21:01:45.095Z,23.40
2023-06-17T21:06:47.400Z,23.20
2023-06-17T21:11:49.566Z,23.10
2023-06-17T21:16:54.039Z,22.90
2023-06-17T21:21:56.261Z,22.90
2023-06-17T21:26:58.480Z,22.70
2023-06-17T21:32:03.628Z,22.60
2023-06-17T21:37:06.399Z,22.50
2023-06-17T21:42:08.401Z,22.40
2023-06-17T21:47:10.753Z,22.30
2023-06-17T21:52:12.942Z,22.20
2023-06-17T21:57:16.193Z,22.10
2023-06-17T22:07:20.888Z,21.90
2023-06-17T22:12:23.006Z,21.80
2023-06-17T22:17:25.761Z,21.70
2023-06-17T22:27:30.841Z,21.50
2023-06-17T22:32:33.237Z,21.50
2023-06-17T22:37:35.947Z,21.30
2023-06-17T22:42:38.072Z,21.20
2023-06-17T22:47:40.528Z,21.10
2023-06-17T22:52:42.888Z,20.90
2023-06-17T22:57:45.695Z,20.80
2023-06-17T23:07:50.845Z,20.50
2023-06-17T23:12:53.181Z,20.40
2023-06-17T23:22:58.023Z,20.10
2023-06-17T23:28:00.494Z,19.90
2023-06-17T23:33:03.742Z,19.80
2023-06-17T23:38:06.440Z,19.80
2023-06-17T23:43:08.634Z,19.70
2023-06-17T23:48:11.020Z,19.60
2023-06-17T23:53:13.419Z,19.50
2023-06-17T23:58:15.701Z,19.40
